createdAt,value
2022-12-23T00:02:11.109Z,100044.50
2022-12-23T00:05:15.701Z,100039.94
2022-12-23T00:08:18.932Z,100037.53
2022-12-23T00:11:23.102Z,100028.25
2022-12-23T00:14:44.809Z,100028.72
2022-12-23T00:17:48.877Z,100026.72
2022-12-23T00:21:04.989Z,100023.56
2022-12-23T00:24:13.046Z,100025.88
2022-12-23T00:27:17.042Z,100019.25
2022-12-23T00:30:19.799Z,100014.44
2022-12-23T00:36:48.058Z,100005.91
2022-12-23T00:40:08.056Z,99997.41
2022-12-23T00:43:12.025Z,99997.97
2022-12-23T00:46:14.795Z,99996.47
2022-12-23T00:49:38.561Z,99989.88
2022-12-23T00:56:03.171Z,99990.38
2022-12-23T00:59:07.415Z,99982.47
2022-12-23T01:02:30.625Z,99989.19
2022-12-23T01:05:40.414Z,99996.88
2022-12-23T01:08:44.407Z,99979.81
2022-12-23T01:11:47.164Z,99979.28
2022-12-23T01:14:51.147Z,99985.94
2022-12-23T01:17:54.435Z,99975.00
2022-12-23T01:24:30.365Z,99966.38
2022-12-23T01:27:33.091Z,99964.91
2022-12-23T01:30:36.945Z,99978.16
2022-12-23T01:33:39.691Z,99968.94
2022-12-23T01:36:43.804Z,99972.53
2022-12-23T01:39:46.593Z,99969.00
2022-12-23T01:42:50.669Z,99962.31
2022-12-23T01:45:53.393Z,99968.03
2022-12-23T01:48:58.368Z,99962.56
2022-12-23T01:52:04.306Z,99953.53
2022-12-23T01:55:08.253Z,99959.97
2022-12-23T01:58:15.688Z,99952.31
2022-12-23T02:01:45.988Z,99948.44
2022-12-23T02:04:50.724Z,99947.00
2022-12-23T02:08:25.898Z,99941.50
2022-12-23T02:11:50.320Z,99943.84
2022-12-23T02:15:31.953Z,99932.19
2022-12-23T02:18:56.169Z,99937.22
2022-12-23T02:22:16.347Z,99931.66
2022-12-23T02:25:51.118Z,99932.13
2022-12-23T02:29:23.355Z,99928.16
2022-12-23T02:32:33.369Z,99917.22
2022-12-23T02:35:42.843Z,99913.88
2022-12-23T02:38:55.120Z,99912.59
2022-12-23T02:42:03.348Z,99903.41
2022-12-23T02:45:13.757Z,99906.75
2022-12-23T02:48:26.113Z,99904.28
2022-12-23T02:51:34.143Z,99897.47
2022-12-23T02:54:44.361Z,99884.63
2022-12-23T02:57:53.748Z,99887.78
2022-12-23T03:00:59.084Z,99886.25
2022-12-23T03:04:06.570Z,99879.56
2022-12-23T03:07:18.939Z,99867.69
2022-12-23T03:10:30.155Z,99863.03
2022-12-23T03:13:54.855Z,99875.28
2022-12-23T03:17:05.670Z,99873.63
2022-12-23T03:20:17.820Z,99883.03
2022-12-23T03:23:26.882Z,99887.66
2022-12-23T03:26:39.346Z,99880.47
2022-12-23T03:33:16.393Z,99869.59
2022-12-23T03:36:25.822Z,99868.28
2022-12-23T03:39:33.940Z,99866.03
2022-12-23T03:42:39.915Z,99869.50
2022-12-23T03:45:49.472Z,99853.22
2022-12-23T03:48:55.442Z,99860.91
2022-12-23T03:52:06.109Z,99860.16
2022-12-23T03:55:14.557Z,99860.88
2022-12-23T03:58:26.027Z,99858.59
2022-12-23T04:01:41.821Z,99850.72
2022-12-23T04:04:55.296Z,99857.28
2022-12-23T04:08:06.964Z,99852.22
2022-12-23T04:11:09.840Z,99852.50
2022-12-23T04:14:19.350Z,99845.50
2022-12-23T04:17:23.526Z,99847.75
2022-12-23T04:20:26.917Z,99845.69
2022-12-23T04:23:32.266Z,99846.50
2022-12-23T04:26:35.012Z,99841.34
2022-12-23T04:29:39.777Z,99839.50
2022-12-23T04:32:45.279Z,99843.31
2022-12-23T04:35:48.215Z,99850.19
2022-12-23T04:38:53.508Z,99851.84
2022-12-23T04:41:56.231Z,99842.25
2022-12-23T04:48:22.269Z,99840.19
2022-12-23T04:51:24.997Z,99839.59
2022-12-23T04:54:30.500Z,99837.38
2022-12-23T04:57:34.525Z,99844.09
2022-12-23T05:00:39.750Z,99852.94
2022-12-23T05:03:43.778Z,99853.19
2022-12-23T05:06:46.509Z,99844.13
2022-12-23T05:09:51.487Z,99839.66
2022-12-23T05:12:55.097Z,99847.59
2022-12-23T05:15:57.907Z,99852.28
2022-12-23T05:19:01.584Z,99853.78
2022-12-23T05:22:04.287Z,99853.47
2022-12-23T05:25:10.025Z,99837.03
2022-12-23T05:28:15.137Z,99846.03
2022-12-23T05:31:18.719Z,99837.56
2022-12-23T05:34:23.739Z,99843.34
2022-12-23T05:37:30.359Z,99838.41
2022-12-23T05:40:36.044Z,99842.56
2022-12-23T05:43:39.556Z,99842.50
2022-12-23T05:46:43.365Z,99839.44
2022-12-23T05:49:46.905Z,99837.34
2022-12-23T05:52:50.750Z,99837.03
2022-12-23T05:55:56.830Z,99837.81
2022-12-23T05:59:03.772Z,99843.03
2022-12-23T06:02:08.696Z,99840.34
2022-12-23T06:05:14.005Z,99840.84
2022-12-23T06:08:19.874Z,99848.72
2022-12-23T06:11:25.557Z,99859.94
2022-12-23T06:14:29.733Z,99857.69
2022-12-23T06:17:39.015Z,99854.94
2022-12-23T06:20:43.090Z,99858.34
2022-12-23T06:23:46.216Z,99858.88
2022-12-23T06:26:57.453Z,99865.75
2022-12-23T06:30:02.223Z,99869.28
2022-12-23T06:33:13.078Z,99875.03
2022-12-23T06:36:19.978Z,99873.69
2022-12-23T06:39:27.044Z,99887.47
2022-12-23T06:42:37.955Z,99897.84
2022-12-23T06:45:42.607Z,99907.47
2022-12-23T06:48:54.989Z,99907.47
2022-12-23T06:51:58.674Z,99912.97
2022-12-23T06:55:01.430Z,99919.50
2022-12-23T06:58:05.663Z,99920.63
2022-12-23T07:01:10.231Z,99924.47
2022-12-23T07:04:13.171Z,99925.00
2022-12-23T07:07:16.782Z,99933.78
2022-12-23T07:10:20.390Z,99926.38
2022-12-23T07:13:24.477Z,99939.00
2022-12-23T07:16:28.260Z,99934.91
2022-12-23T07:19:31.052Z,99944.72
2022-12-23T07:22:33.748Z,99942.81
2022-12-23T07:25:37.374Z,99943.34
2022-12-23T07:28:41.409Z,99952.03
2022-12-23T07:31:45.138Z,99944.56
2022-12-23T07:34:47.854Z,99942.53
2022-12-23T07:37:52.894Z,99951.84
2022-12-23T07:40:55.612Z,99952.28
2022-12-23T07:43:59.747Z,99946.34
2022-12-23T07:47:02.478Z,99954.31
2022-12-23T07:50:05.707Z,99955.88
2022-12-23T07:53:09.361Z,99955.81
2022-12-23T07:56:12.931Z,99963.81
2022-12-23T07:59:17.189Z,99973.63
2022-12-23T08:02:23.104Z,99972.53
2022-12-23T08:05:26.200Z,99974.19
2022-12-23T08:08:29.898Z,99976.31
2022-12-23T08:11:33.439Z,99983.63
2022-12-23T08:14:37.465Z,99973.53
2022-12-23T08:17:40.189Z,99974.19
2022-12-23T08:20:42.912Z,99983.16
2022-12-23T08:23:47.903Z,99986.06
2022-12-23T08:26:50.603Z,99989.59
2022-12-23T08:29:54.902Z,99997.16
2022-12-23T08:32:57.647Z,99987.78
2022-12-23T08:36:00.392Z,99990.25
2022-12-23T08:39:06.401Z,99986.91
2022-12-23T08:42:09.100Z,99988.13
2022-12-23T08:45:14.298Z,99993.34
2022-12-23T08:48:17.127Z,99989.72
2022-12-23T08:51:25.352Z,99990.50
2022-12-23T08:54:29.786Z,99987.44
2022-12-23T08:57:32.573Z,99996.81
2022-12-23T09:00:38.030Z,100001.81
2022-12-23T09:03:41.642Z,100009.88
2022-12-23T09:06:46.227Z,100040.34
2022-12-23T09:09:50.014Z,100031.63
2022-12-23T09:12:53.159Z,100026.25
2022-12-23T09:15:58.257Z,100046.97
2022-12-23T09:19:01.075Z,100038.88
2022-12-23T09:22:04.648Z,100050.03
2022-12-23T09:25:08.253Z,100058.56
2022-12-23T09:28:12.803Z,100067.38
2022-12-23T09:31:17.796Z,100068.53
2022-12-23T09:34:21.771Z,100076.13
2022-12-23T09:37:26.370Z,100096.50
2022-12-23T09:40:32.640Z,100094.09
2022-12-23T09:43:50.449Z,100096.75
2022-12-23T09:46:58.427Z,100093.31
2022-12-23T09:50:05.362Z,100096.84
2022-12-23T09:53:16.293Z,100097.06
2022-12-23T09:56:27.877Z,100102.22
2022-12-23T09:59:45.862Z,100103.50
2022-12-23T10:03:10.490Z,100107.13
2022-12-23T10:06:21.010Z,100110.97
2022-12-23T10:09:24.436Z,100116.75
2022-12-23T10:12:40.072Z,100102.88
2022-12-23T10:15:46.986Z,100112.19
2022-12-23T10:18:56.552Z,100113.56
2022-12-23T10:22:04.542Z,100105.34
2022-12-23T10:25:17.852Z,100105.00
2022-12-23T10:28:20.932Z,100108.00
2022-12-23T10:31:41.471Z,100104.94
2022-12-23T10:34:55.126Z,100105.66
2022-12-23T10:38:04.513Z,100108.41
2022-12-23T10:41:17.628Z,100098.84
2022-12-23T10:44:57.879Z,100097.47
2022-12-23T10:48:17.451Z,100088.16
2022-12-23T10:54:49.303Z,100100.53
2022-12-23T10:57:54.738Z,100108.69
2022-12-23T11:01:00.481Z,100100.91
2022-12-23T11:04:09.641Z,100107.34
2022-12-23T11:07:43.291Z,100109.88
2022-12-23T11:10:40.957Z,100113.97
2022-12-23T11:13:47.198Z,100108.78
2022-12-23T11:16:50.856Z,100113.75
2022-12-23T11:20:11.000Z,100115.59
2022-12-23T11:23:28.864Z,100124.91
2022-12-23T11:26:31.963Z,100124.06
2022-12-23T11:29:38.585Z,100125.19
2022-12-23T11:32:43.811Z,100134.97
2022-12-23T11:35:47.856Z,100136.22
2022-12-23T11:38:56.270Z,100132.63
2022-12-23T11:42:06.917Z,100135.50
2022-12-23T11:45:11.285Z,100134.41
2022-12-23T11:48:29.361Z,100135.81
2022-12-23T11:51:33.383Z,100146.09
2022-12-23T11:54:40.744Z,100140.72
2022-12-23T11:57:47.489Z,100142.63
2022-12-23T12:00:56.380Z,100149.44
2022-12-23T12:04:02.992Z,100154.13
2022-12-23T12:07:09.178Z,100161.75
2022-12-23T12:10:20.696Z,100169.03
2022-12-23T12:13:26.999Z,100173.56
2022-12-23T12:16:51.313Z,100167.81
2022-12-23T12:20:04.737Z,100172.03
2022-12-23T12:23:14.717Z,100154.00
2022-12-23T12:26:26.878Z,100149.47
2022-12-23T12:29:35.736Z,100153.56
2022-12-23T12:32:47.775Z,100161.34
2022-12-23T12:36:00.243Z,100150.59
2022-12-23T12:39:07.722Z,100147.44
2022-12-23T12:42:17.835Z,100148.88
2022-12-23T12:45:25.094Z,100147.53
2022-12-23T12:48:38.585Z,100144.69
2022-12-23T12:51:47.758Z,100146.84
2022-12-23T12:54:57.230Z,100139.50
2022-12-23T12:58:02.599Z,100138.63
2022-12-23T13:01:24.676Z,100136.75
2022-12-23T13:04:47.820Z,100147.38
2022-12-23T13:08:05.983Z,100154.53
2022-12-23T13:11:16.973Z,100149.59
2022-12-23T13:14:33.983Z,100142.75
2022-12-23T13:17:43.513Z,100135.28
2022-12-23T13:20:53.607Z,100133.88
2022-12-23T13:24:05.428Z,100128.66
2022-12-23T13:27:12.927Z,100121.03
2022-12-23T13:30:20.388Z,100117.09
2022-12-23T13:33:28.246Z,100107.25
2022-12-23T13:36:45.320Z,100120.94
2022-12-23T13:39:58.128Z,100110.59
2022-12-23T13:43:07.282Z,100105.63
2022-12-23T13:46:22.614Z,100099.97
2022-12-23T13:49:36.646Z,100104.41
2022-12-23T13:52:54.549Z,100105.44
2022-12-23T13:56:11.420Z,100102.63
2022-12-23T13:59:18.215Z,100099.09
2022-12-23T14:02:49.963Z,100100.72
2022-12-23T14:05:54.486Z,100107.00
2022-12-23T14:08:57.270Z,100093.94
2022-12-23T14:12:12.914Z,100097.81
2022-12-23T14:15:50.172Z,100101.88
2022-12-23T14:19:31.432Z,100107.38
2022-12-23T14:22:49.195Z,100106.00
2022-12-23T14:30:05.257Z,100105.84
2022-12-23T14:33:20.859Z,100109.41
2022-12-23T14:36:27.132Z,100111.06
2022-12-23T14:39:35.521Z,100108.31
2022-12-23T14:46:07.514Z,100115.44
2022-12-23T14:49:38.432Z,100112.44
2022-12-23T14:52:51.905Z,100108.31
2022-12-23T14:56:14.617Z,100121.97
2022-12-23T14:59:28.693Z,100118.41
2022-12-23T15:02:35.095Z,100130.69
2022-12-23T15:05:39.125Z,100124.63
2022-12-23T15:08:45.928Z,100139.63
2022-12-23T15:11:49.181Z,100139.84
2022-12-23T15:14:54.151Z,100128.41
2022-12-23T15:18:02.872Z,100131.69
2022-12-23T15:21:12.331Z,100133.03
2022-12-23T15:27:39.938Z,100122.06
2022-12-23T15:30:50.813Z,100122.81
2022-12-23T15:34:04.743Z,100121.00
2022-12-23T15:37:11.992Z,100126.91
2022-12-23T15:40:28.113Z,100129.91
2022-12-23T15:43:31.245Z,100127.78
2022-12-23T15:46:35.235Z,100130.06
2022-12-23T15:49:39.519Z,100111.09
2022-12-23T15:52:44.119Z,100115.09
2022-12-23T15:55:49.817Z,100121.38
2022-12-23T15:58:53.102Z,100122.44
2022-12-23T16:01:56.938Z,100124.34
2022-12-23T16:05:03.797Z,100133.59
2022-12-23T16:08:26.775Z,100135.59
2022-12-23T16:11:44.647Z,100139.66
2022-12-23T16:14:53.561Z,100144.50
2022-12-23T16:18:15.727Z,100142.13
2022-12-23T16:21:18.482Z,100139.66
2022-12-23T16:24:24.920Z,100143.19
2022-12-23T16:27:38.485Z,100145.38
2022-12-23T16:34:09.610Z,100138.63
2022-12-23T16:37:12.496Z,100128.78
2022-12-23T16:40:16.645Z,100133.44
2022-12-23T16:43:21.587Z,100133.94
2022-12-23T16:46:26.011Z,100131.13
2022-12-23T16:49:33.931Z,100124.25
2022-12-23T16:52:36.997Z,100120.19
2022-12-23T16:55:48.272Z,100115.56
2022-12-23T16:58:56.747Z,100109.03
2022-12-23T17:02:03.471Z,100109.22
2022-12-23T17:05:08.989Z,100103.75
2022-12-23T17:08:12.016Z,100099.97
2022-12-23T17:11:18.021Z,100077.88
2022-12-23T17:14:25.532Z,100083.19
2022-12-23T17:17:28.288Z,100080.78
2022-12-23T17:20:33.111Z,100071.59
2022-12-23T17:23:35.865Z,100073.75
2022-12-23T17:26:39.965Z,100071.69
2022-12-23T17:29:45.632Z,100071.19
2022-12-23T17:32:52.210Z,100070.69
2022-12-23T17:35:57.034Z,100068.81
2022-12-23T17:38:59.845Z,100057.63
2022-12-23T17:42:25.619Z,100050.28
2022-12-23T17:45:31.752Z,100055.72
2022-12-23T17:48:35.748Z,100049.97
2022-12-23T17:51:40.483Z,100051.34
2022-12-23T17:54:45.053Z,100046.47
2022-12-23T17:57:47.853Z,100038.97
2022-12-23T18:00:53.807Z,100040.34
2022-12-23T18:03:58.050Z,100042.19
2022-12-23T18:07:01.989Z,100047.47
2022-12-23T18:10:05.111Z,100039.78
2022-12-23T18:13:11.107Z,100046.31
2022-12-23T18:16:16.493Z,100036.09
2022-12-23T18:19:21.327Z,100038.75
2022-12-23T18:22:27.743Z,100036.78
2022-12-23T18:25:30.534Z,100047.34
2022-12-23T18:28:34.538Z,100031.34
2022-12-23T18:31:50.035Z,100029.81
2022-12-23T18:34:55.383Z,100031.69
2022-12-23T18:38:00.270Z,100032.53
2022-12-23T18:41:03.097Z,100030.06
2022-12-23T18:44:06.321Z,100022.44
2022-12-23T18:47:11.740Z,100033.13
2022-12-23T18:50:14.453Z,100041.06
2022-12-23T18:53:24.358Z,100031.53
2022-12-23T18:56:27.779Z,100027.16
2022-12-23T18:59:32.761Z,100029.88
2022-12-23T19:02:38.168Z,100028.28
2022-12-23T19:05:40.977Z,100032.97
2022-12-23T19:08:46.071Z,100023.59
2022-12-23T19:11:50.207Z,100030.97
2022-12-23T19:14:52.955Z,100031.78
2022-12-23T19:21:19.502Z,100013.94
2022-12-23T19:24:23.686Z,100015.94
2022-12-23T19:27:26.525Z,100014.13
2022-12-23T19:30:30.692Z,100011.47
2022-12-23T19:33:38.588Z,100008.22
2022-12-23T19:36:41.406Z,100013.78
2022-12-23T19:39:45.938Z,100006.66
2022-12-23T19:42:48.740Z,100005.50
2022-12-23T19:45:58.613Z,100006.91
2022-12-23T19:49:02.721Z,100001.38
2022-12-23T19:52:07.021Z,100011.72
2022-12-23T19:55:12.427Z,100008.22
2022-12-23T19:58:15.099Z,100004.69
2022-12-23T20:01:22.563Z,99991.88
2022-12-23T20:04:27.895Z,100000.56
2022-12-23T20:07:30.727Z,99996.19
2022-12-23T20:10:34.709Z,99982.97
2022-12-23T20:13:39.417Z,99982.97
2022-12-23T20:16:43.748Z,99980.66
2022-12-23T20:19:49.065Z,99969.47
2022-12-23T20:22:51.983Z,99970.25
2022-12-23T20:25:55.925Z,99968.59
2022-12-23T20:28:59.381Z,99961.81
2022-12-23T20:32:03.678Z,99959.13
2022-12-23T20:35:09.956Z,99958.78
2022-12-23T20:38:12.626Z,99960.06
2022-12-23T20:41:18.916Z,99951.97
2022-12-23T20:44:34.634Z,99956.03
2022-12-23T20:47:39.927Z,99962.44
2022-12-23T20:50:45.266Z,99962.22
2022-12-23T20:53:48.061Z,99964.13
2022-12-23T20:56:52.152Z,99957.13
2022-12-23T20:59:54.851Z,99952.91
2022-12-23T21:02:58.925Z,99958.38
2022-12-23T21:06:04.448Z,99960.31
2022-12-23T21:09:08.921Z,99956.72
2022-12-23T21:12:12.851Z,99952.03
2022-12-23T21:15:15.844Z,99957.53
2022-12-23T21:18:19.848Z,99958.94
2022-12-23T21:21:26.447Z,99957.03
2022-12-23T21:24:29.406Z,99953.06
2022-12-23T21:27:32.164Z,99960.41
2022-12-23T21:30:36.188Z,99956.03
2022-12-23T21:33:40.386Z,99955.59
2022-12-23T21:36:45.965Z,99944.69
2022-12-23T21:39:48.805Z,99942.56
2022-12-23T21:42:52.643Z,99946.06
2022-12-23T21:45:59.840Z,99946.53
2022-12-23T21:49:04.025Z,99940.47
2022-12-23T21:52:09.228Z,99939.94
2022-12-23T21:55:15.608Z,99942.09
2022-12-23T21:58:19.438Z,99934.56
2022-12-23T22:01:22.382Z,99947.41
2022-12-23T22:04:26.262Z,99942.94
2022-12-23T22:07:30.384Z,99932.53
2022-12-23T22:10:34.187Z,99929.00
2022-12-23T22:13:38.620Z,99933.72
2022-12-23T22:16:41.434Z,99925.75
2022-12-23T22:19:45.435Z,99933.50
2022-12-23T22:22:50.967Z,99934.44
2022-12-23T22:25:54.638Z,99929.25
2022-12-23T22:29:00.256Z,99925.53
2022-12-23T22:32:02.947Z,99923.81
2022-12-23T22:35:07.490Z,99920.06
2022-12-23T22:38:12.736Z,99926.47
2022-12-23T22:41:16.015Z,99920.25
2022-12-23T22:44:20.335Z,99917.09
2022-12-23T22:47:23.467Z,99933.56
2022-12-23T22:50:27.369Z,99928.75
2022-12-23T22:53:37.830Z,99929.06
2022-12-23T22:56:40.999Z,99926.53
2022-12-23T22:59:49.917Z,99923.41
2022-12-23T23:02:53.736Z,99938.25
2022-12-23T23:05:58.270Z,99935.28
2022-12-23T23:09:03.809Z,99931.53
2022-12-23T23:12:06.858Z,99936.81
2022-12-23T23:15:11.681Z,99938.25
2022-12-23T23:18:15.760Z,99938.47
2022-12-23T23:21:19.050Z,99941.31
2022-12-23T23:24:30.916Z,99944.59
2022-12-23T23:27:34.308Z,99943.84
2022-12-23T23:30:38.807Z,99943.78
2022-12-23T23:33:42.721Z,99942.63
2022-12-23T23:36:45.525Z,99948.13
2022-12-23T23:39:50.739Z,99945.09
2022-12-23T23:42:53.445Z,99948.75
2022-12-23T23:45:57.375Z,99956.69
2022-12-23T23:49:01.312Z,99949.91
2022-12-23T23:52:04.106Z,99953.66
2022-12-23T23:55:11.294Z,99956.38
2022-12-23T23:58:13.983Z,99963.78
